createdAt,value
2018-04-07T10:39:50.944Z,6.70
2018-04-07T10:40:50.904Z,6.90
2018-04-07T10:41:50.947Z,7.00
2018-04-07T10:42:51.035Z,7.80
2018-04-07T10:43:50.863Z,8.00
2018-04-07T10:44:50.905Z,8.00
2018-04-07T10:45:50.837Z,7.20
2018-04-07T10:46:50.819Z,6.90
2018-04-07T10:47:53.276Z,7.30
2018-04-07T10:48:50.836Z,7.00
2018-04-07T10:49:50.787Z,6.80
2018-04-07T10:50:53.051Z,6.60
2018-04-07T10:51:50.748Z,7.00
2018-04-07T10:52:50.734Z,7.30
2018-04-07T10:55:13.558Z,7.40
2018-04-07T10:56:22.570Z,6.70
2018-04-07T10:58:07.226Z,6.80
2018-04-07T11:00:29.397Z,6.60
2018-04-07T11:01:29.491Z,6.40
2018-04-07T11:02:29.374Z,6.70
2018-04-07T11:05:01.026Z,7.00
2018-04-07T11:05:51.383Z,7.00
2018-04-07T11:08:13.465Z,6.90
2018-04-07T11:09:13.424Z,7.00
2018-04-07T11:10:13.820Z,7.50
2018-04-07T11:11:13.374Z,7.10
2018-04-07T11:12:13.370Z,7.40
2018-04-07T11:13:13.368Z,7.20
2018-04-07T11:14:13.347Z,7.10
2018-04-07T11:16:46.653Z,7.30
2018-04-07T11:18:58.587Z,6.70
2018-04-07T11:19:58.489Z,6.90
2018-04-07T11:20:58.470Z,6.70
2018-04-07T11:21:58.523Z,7.20
2018-04-07T11:22:58.469Z,7.60
2018-04-07T11:23:58.456Z,8.30
2018-04-07T11:24:58.432Z,7.10
2018-04-07T11:25:58.421Z,7.10
2018-04-07T11:26:58.411Z,7.40
2018-04-07T11:29:21.475Z,7.40
2018-04-07T11:31:54.709Z,6.90
2018-04-07T11:32:52.176Z,6.80
2018-04-07T11:34:47.914Z,7.30
2018-04-07T11:35:37.815Z,6.70
2018-04-07T11:36:37.845Z,6.80
2018-04-07T11:37:37.880Z,7.00
2018-04-07T11:38:37.825Z,7.20
2018-04-07T11:39:37.791Z,7.20
2018-04-07T11:40:37.760Z,6.90
2018-04-07T11:41:37.745Z,6.80
2018-04-07T11:42:37.749Z,6.90
2018-04-07T11:45:00.828Z,7.70
2018-04-07T11:47:35.340Z,7.10
2018-04-07T11:48:23.793Z,7.30
2018-04-07T11:49:23.792Z,7.20
2018-04-07T11:50:23.754Z,7.30
2018-04-07T11:51:23.767Z,7.70
2018-04-07T11:52:23.743Z,7.00
2018-04-07T11:53:23.724Z,7.20
2018-04-07T11:55:45.837Z,7.50
2018-04-07T11:58:18.967Z,7.40
2018-04-07T11:59:08.780Z,7.30
2018-04-07T12:01:31.879Z,7.30
2018-04-07T12:02:31.820Z,6.90
2018-04-07T12:03:31.847Z,7.60
2018-04-07T12:04:31.751Z,7.00
2018-04-07T12:05:31.784Z,7.10
2018-04-07T12:06:31.737Z,7.10
2018-04-07T12:07:31.740Z,7.30
2018-04-07T12:08:31.749Z,7.40
2018-04-07T12:09:31.712Z,6.70
2018-04-07T12:10:31.712Z,6.70
2018-04-07T12:11:39.373Z,6.60
2018-04-07T12:13:36.191Z,7.20
2018-04-07T12:14:26.061Z,7.10
2018-04-07T12:15:26.048Z,7.50
2018-04-07T12:16:26.033Z,6.40
2018-04-07T12:17:26.021Z,6.40
2018-04-07T12:18:26.003Z,6.60
2018-04-07T12:19:37.245Z,7.40
2018-04-07T12:21:30.666Z,7.20
2018-04-07T12:22:19.879Z,6.70
2018-04-07T12:24:53.586Z,6.40
2018-04-07T12:25:42.941Z,6.60
2018-04-07T12:28:16.842Z,6.80
2018-04-07T12:30:29.857Z,6.60
2018-04-07T12:32:55.454Z,6.20
2018-04-07T12:35:17.371Z,5.90
2018-04-07T12:37:39.378Z,6.20
2018-04-07T12:40:02.155Z,6.50
2018-04-07T12:42:24.594Z,6.30
2018-04-07T12:45:05.207Z,6.10
2018-04-07T12:47:48.721Z,5.70
2018-04-07T12:48:48.961Z,5.90
2018-04-07T12:49:49.052Z,5.60
2018-04-07T12:51:00.712Z,5.60
